Date,TemperatureHighF,TemperatureAvgF,TemperatureLowF,DewpointHighF,DewpointAvgF,DewpointLowF,HumidityHigh,HumidityAvg,HumidityLow,PressureMaxIn,PressureMinIn,WindSpeedMaxMPH,WindSpeedAvgMPH,GustSpeedMaxMPH,PrecipitationSumIn
2013-1-1,46,42,38,30,27,22,61,55,50,30.01,29.87,8,4,18,0.00
2013-1-2,38,33,29,22,13,8,54,43,39,30.22,29.98,14,5,21,0.00
2013-1-3,35,31,25,20,14,9,64,50,39,30.25,30.13,12,4,15,0.00
2013-1-4,40,36,32,23,19,14,64,51,39,30.19,30.07,16,8,22,0.00
2013-1-5,39,34,28,26,19,14,74,54,39,30.37,30.13,14,7,18,0.00
2013-1-6,46,38,31,33,27,22,83,65,39,30.25,30.04,10,1,14,0.00
2013-1-7,46,39,27,30,26,21,83,61,42,30.43,30.10,12,5,17,0.00
2013-1-8,52,38,25,38,29,22,100,71,42,30.46,30.37,6,1,9,0.00
2013-1-9,59,47,34,43,35,29,85,65,44,30.40,30.22,8,1,14,0.00
2013-1-10,48,43,33,33,28,24,71,56,44,30.58,30.31,14,5,17,0.00
2013-1-11,51,43,33,51,37,25,100,79,55,30.52,30.07,14,3,25,0.16
2013-1-12,53,45,42,47,43,41,100,94,69,30.16,30.07,8,3,12,0.09
2013-1-13,54,47,41,50,38,21,100,77,44,30.16,30.01,9,3,13,0.00
2013-1-14,55,50,45,55,48,39,100,94,70,30.22,29.98,9,3,15,0.16
2013-1-15,45,38,35,45,38,35,100,100,98,30.34,30.16,8,3,10,0.88
2013-1-16,42,39,35,42,39,35,100,100,100,30.16,29.87,10,3,14,0.84
2013-1-17,42,40,35,42,38,29,100,94,67,30.13,29.98,7,1,10,0.30
2013-1-18,49,32,23,35,21,10,100,65,39,30.52,30.01,18,6,23,0.13
2013-1-19,51,39,24,30,24,19,83,57,39,30.49,30.04,10,4,16,0.00
2013-1-20,55,45,37,32,27,14,62,49,39,30.07,29.81,13,7,17,0.00
2013-1-21,41,34,24,28,16,6,88,51,39,30.13,29.78,17,6,22,0.00
2013-1-22,29,23,18,17,3,-3,61,42,39,30.28,29.87,23,15,28,0.00
2013-1-23,23,19,16,2,-2,-5,39,39,39,30.34,30.19,16,10,21,0.00
2013-1-24,25,21,16,4,0,-5,54,40,39,30.49,30.10,17,9,21,0.01
2013-1-25,27,22,18,16,5,-3,76,48,39,30.49,30.07,15,4,17,0.01
2013-1-26,28,25,20,14,10,4,70,54,39,30.40,30.07,18,11,22,0.06
2013-1-27,34,25,19,15,9,2,77,51,39,30.58,30.43,10,4,13,0.01
2013-1-28,40,33,19,32,26,13,84,77,69,30.52,30.04,7,1,10,0.07
2013-1-29,61,44,31,45,38,29,100,81,51,30.16,30.04,9,2,14,0.01
2013-1-30,61,52,44,55,48,43,100,87,64,30.04,29.45,21,10,29,0.00
2013-1-31,56,42,32,54,23,10,98,47,39,29.90,29.42,22,17,29,0.45
2013-2-1,33,28,22,28,12,1,92,52,39,30.34,29.84,21,12,31,0.02
2013-2-2,31,25,19,23,8,-1,82,48,39,30.37,30.07,15,5,21,0.10
2013-2-3,34,29,24,25,21,18,88,72,56,30.07,29.84,8,2,12,0.07
2013-2-4,34,30,25,24,12,4,71,47,39,30.10,29.87,21,9,26,0.01
2013-2-5,46,37,31,32,27,21,88,67,39,29.96,29.87,8,1,10,0.00
2013-2-6,41,35,24,32,25,18,94,70,49,30.37,29.90,15,5,20,0.00
2013-2-7,42,33,22,31,20,11,82,60,39,30.49,30.22,10,4,15,0.00
2013-2-8,45,41,34,45,39,31,100,93,67,30.22,29.57,18,11,21,1.74
2013-2-9,35,32,28,33,16,7,94,53,39,30.34,29.75,25,20,32,0.01
2013-2-10,37,30,20,27,12,0,73,49,39,30.49,30.34,14,3,14,0.00
2013-2-11,52,46,36,52,44,28,100,94,72,30.34,29.69,17,5,22,0.33
2013-2-12,48,42,31,46,29,24,100,64,39,29.98,29.75,13,5,16,0.01
2013-2-13,48,37,28,36,29,22,99,74,49,29.98,29.60,12,5,15,0.47
2013-2-14,43,36,31,35,31,27,100,82,56,30.04,29.69,9,5,31,0.09
2013-2-15,54,41,29,43,33,29,100,75,50,30.07,29.93,9,4,14,0.00
2013-2-16,40,36,29,33,30,23,88,77,64,29.98,29.75,13,6,16,0.17
2013-2-17,33,29,26,23,8,4,79,41,39,30.07,29.72,24,18,31,0.04
2013-2-18,36,28,22,18,7,1,62,42,39,30.34,30.07,24,13,30,0.01
2013-2-19,51,41,32,45,32,18,96,71,50,30.25,29.72,10,4,14,0.11
2013-2-20,38,34,27,29,14,5,71,44,39,30.10,29.81,22,16,29,0.01
2013-2-21,35,30,25,17,10,4,54,41,39,30.28,30.07,21,15,25,0.00
2013-2-22,41,33,26,33,20,10,90,58,40,30.40,30.22,9,3,12,0.06
2013-2-23,48,43,36,48,42,34,100,99,91,30.25,29.75,15,4,20,0.27
2013-2-24,47,40,35,42,32,20,100,75,51,30.04,29.75,16,10,21,0.01
2013-2-25,45,35,26,26,22,19,85,58,39,30.25,30.04,16,7,20,0.00
2013-2-26,48,37,25,46,32,22,100,82,55,30.25,29.66,18,8,24,1.12
2013-2-27,54,48,44,49,42,34,100,83,53,29.69,29.48,12,5,18,1.01
2013-2-28,49,41,36,41,34,28,100,79,51,29.69,29.60,9,3,13,0.21
2013-3-1,47,40,36,31,29,27,77,64,49,29.81,29.66,13,7,20,0.01
2013-3-3,37,36,33,20,15,11,55,43,39,29.84,29.75,17,15,22,0.00
2013-3-4,40,35,31,21,17,12,54,47,39,29.98,29.81,23,16,28,0.00
2013-3-5,44,36,31,29,22,17,78,57,39,30.07,29.90,20,8,21,0.00
2013-3-6,41,38,34,39,35,28,98,89,66,29.90,29.48,29,18,38,1.40
2013-3-7,47,40,33,33,28,24,97,64,45,30.07,29.84,17,12,23,0.65
2013-3-8,40,37,32,31,27,20,82,69,49,30.19,30.01,18,12,23,0.03
2013-3-9,53,40,29,29,24,21,81,54,39,30.31,30.16,13,6,17,0.01
2013-3-10,49,37,25,38,29,21,96,75,55,30.37,30.31,10,3,16,0.00
2013-3-11,59,46,33,51,41,32,100,85,57,30.31,30.07,15,6,18,0.00
2013-3-12,54,50,44,53,45,33,100,83,66,30.07,29.72,20,12,25,0.21
2013-3-13,51,44,34,29,26,19,79,52,39,29.98,29.87,16,7,25,0.01
2013-3-14,44,38,33,21,16,11,49,40,39,30.04,29.96,20,17,28,0.00
2013-3-15,53,42,32,29,20,10,66,43,39,30.07,29.81,17,8,25,0.00
2013-3-16,50,41,33,31,28,26,80,62,40,29.90,29.69,13,6,15,0.00
2013-3-17,43,38,34,30,22,13,75,53,39,30.28,29.90,9,4,15,0.00
2013-3-18,46,39,34,46,26,12,100,63,39,30.34,29.87,13,7,21,0.44
2013-3-19,52,44,38,47,40,27,100,87,49,29.87,29.72,13,5,20,0.68
2013-3-20,50,42,33,30,23,16,64,48,39,29.98,29.81,16,9,21,0.09
2013-3-21,41,36,31,29,17,9,67,47,39,29.84,29.69,16,12,21,0.04
2013-3-22,45,37,30,22,16,8,54,43,39,29.96,29.84,17,13,22,0.01
2013-3-23,45,37,32,27,20,16,59,50,39,29.98,29.93,15,9,18,0.00
2013-3-24,49,38,26,26,21,18,77,52,39,29.98,29.66,7,2,9,0.00
2013-3-25,38,35,33,36,33,25,99,91,58,29.69,29.39,14,9,18,0.89
2013-3-26,52,41,35,35,31,27,97,71,39,29.93,29.63,14,7,21,0.16
2013-3-27,50,44,37,32,28,24,80,55,39,30.04,29.93,14,9,21,0.00
2013-3-28,50,43,38,30,28,25,63,54,39,30.16,30.04,16,10,23,0.00
2013-3-29,56,45,38,31,28,26,68,53,39,30.22,30.10,13,6,16,0.11
2013-3-30,57,45,31,36,29,26,88,56,39,30.22,30.13,8,3,12,0.11
2013-3-31,57,46,35,50,39,-100,100,81,45,30.16,29.72,17,6,21,0.13
2013-4-1,66,52,42,50,41,21,100,69,39,29.93,29.69,16,6,20,0.01
2013-4-2,48,42,35,24,19,13,39,39,39,30.13,29.78,16,11,21,0.00
2013-4-3,49,42,35,25,19,13,39,39,39,30.34,30.13,18,12,22,0.00
2013-4-4,51,41,30,30,20,9,72,43,39,30.43,30.13,10,6,16,0.03
2013-4-5,59,45,37,46,35,28,100,72,39,30.13,29.78,15,4,20,1.16
2013-4-6,49,42,33,32,23,17,75,48,39,30.34,29.96,12,6,16,0.04
2013-4-7,59,46,31,40,35,26,92,67,47,30.34,30.04,17,7,24,0.00
2013-4-8,75,59,46,48,44,39,85,60,39,30.10,30.01,10,4,15,0.00
2013-4-9,83,68,55,55,49,45,72,53,39,30.04,29.96,9,4,15,0.00
2013-4-10,88,72,58,60,51,46,66,50,39,29.96,29.81,9,5,15,0.00
2013-4-11,80,60,47,55,48,43,100,66,41,29.90,29.84,18,8,23,0.00
2013-4-12,69,55,47,65,52,47,100,93,68,29.87,29.60,15,8,20,0.17
2013-4-13,62,52,46,49,41,36,100,70,39,29.96,29.66,12,6,16,0.26
2013-4-14,64,53,39,52,40,36,100,67,39,30.16,29.96,14,4,17,0.24
2013-4-15,62,52,46,44,41,37,88,66,48,30.34,30.13,13,6,20,0.00
2013-4-16,69,58,49,51,48,42,86,68,51,30.34,30.16,15,8,20,0.00
2013-4-17,78,60,52,58,49,39,96,69,47,30.28,30.13,13,4,15,0.00
2013-4-18,73,59,54,58,50,39,100,72,52,30.31,30.10,15,7,20,0.00
2013-4-19,72,63,56,63,58,55,100,85,57,30.10,29.72,18,11,24,0.13
2013-4-20,63,54,47,63,40,27,100,62,39,30.28,29.72,15,9,22,0.79
2013-4-21,54,46,35,32,26,18,79,46,39,30.60,30.28,10,5,15,0.04
2013-4-22,55,46,34,40,35,28,85,65,49,30.60,30.40,18,10,23,0.00
2013-4-23,55,48,44,42,39,37,79,70,55,30.40,30.13,13,6,20,0.01
2013-4-24,64,53,39,49,44,35,95,71,53,30.13,29.87,15,6,23,0.01
2013-4-25,63,54,43,53,36,28,89,52,39,30.28,29.90,17,8,22,0.00
2013-4-26,67,54,39,46,37,34,90,58,39,30.43,30.28,9,3,14,0.00
2013-4-27,70,54,40,44,38,35,89,59,39,30.43,30.31,8,2,13,0.00
2013-4-28,72,55,39,51,40,-100,100,63,39,30.31,30.19,9,3,13,0.00
2013-4-29,57,54,51,57,53,44,100,95,64,30.22,30.13,12,7,18,0.99
2013-4-30,65,55,50,55,49,44,100,82,54,30.28,30.10,13,7,21,0.41
2013-5-1,65,53,46,48,43,39,99,71,44,30.46,30.28,16,7,60,0.01
2013-5-2,66,54,42,51,44,40,100,72,41,30.43,30.34,10,4,15,0.00
2013-5-3,61,52,43,46,41,36,100,68,44,30.43,30.31,17,9,22,0.00
2013-5-4,65,52,42,50,41,38,100,68,45,30.34,30.22,14,7,20,0.01
2013-5-5,61,51,44,45,40,35,93,66,47,30.25,30.19,13,9,18,0.01
2013-5-6,64,53,46,53,49,45,100,87,58,30.19,30.10,14,8,18,0.00
2013-5-7,62,56,51,58,54,51,100,94,72,30.10,29.98,13,8,17,0.21
2013-5-8,72,61,53,63,54,50,100,82,51,30.01,29.96,10,3,16,0.16
2013-5-9,75,62,55,61,55,52,100,80,49,29.98,29.90,8,2,10,0.16
2013-5-10,82,67,56,74,54,-100,100,69,44,30.01,29.90,9,3,13,0.00
2013-5-11,75,66,59,66,60,54,100,83,59,29.93,29.72,10,4,18,0.33
2013-5-12,69,62,57,61,47,-100,100,65,39,29.98,29.69,16,6,22,0.11
2013-5-13,64,56,50,39,32,27,48,40,39,30.10,29.98,14,8,21,0.01
2013-5-14,62,52,42,44,33,18,69,50,34,30.19,30.07,9,4,15,0.02
2013-5-15,75,63,52,58,50,44,83,65,48,30.10,29.72,12,5,15,0.09
2013-5-16,86,68,63,62,38,-100,84,58,39,29.84,29.72,7,2,10,0.07
2013-5-17,80,67,58,57,44,-100,87,55,39,30.19,29.84,8,4,12,0.00
2013-5-18,73,63,58,59,52,44,100,68,49,30.28,30.19,10,4,16,0.33
2013-5-19,68,61,57,62,58,55,100,92,64,30.25,30.13,10,6,15,0.85
2013-5-20,84,71,61,66,61,57,100,75,48,30.16,30.01,8,3,13,0.01
2013-5-21,84,73,64,67,62,59,100,73,47,30.01,29.90,7,2,9,0.00
2013-5-22,86,74,66,69,63,59,100,72,48,29.96,29.87,9,3,14,0.00
2013-5-23,81,71,64,64,61,57,97,72,49,29.96,29.78,13,7,17,0.06
2013-5-24,68,59,50,67,52,35,100,79,50,30.04,29.72,15,6,20,0.27
2013-5-25,67,57,50,41,36,33,57,45,39,30.10,29.98,17,12,23,0.01
2013-5-26,78,62,54,51,39,31,71,44,39,30.16,30.07,13,7,16,0.00
2013-5-27,77,61,46,50,45,40,85,59,39,30.28,30.16,6,1,7,0.00
2013-5-28,70,62,55,61,54,49,93,75,59,30.22,30.10,8,3,12,0.27
2013-5-29,95,75,63,66,58,52,80,59,39,30.13,30.07,6,3,10,0.01
2013-5-30,95,78,67,66,60,57,74,56,39,30.19,30.10,6,2,9,0.01
2013-5-31,89,76,66,66,61,57,93,63,40,30.16,30.04,8,3,10,0.20
2013-6-1,89,77,68,65,61,58,82,60,42,30.07,29.96,10,5,15,0.18
2013-6-2,85,76,67,65,59,-100,85,61,43,29.96,29.84,9,4,15,0.07
2013-6-3,76,70,66,73,67,63,100,89,68,29.90,29.81,3,1,7,0.64
2013-6-4,81,68,59,68,51,42,100,56,39,30.10,29.87,9,4,15,0.01
2013-6-5,85,67,54,59,53,45,100,66,39,30.19,30.10,6,2,8,0.00
2013-6-6,78,65,53,63,56,53,100,74,46,30.13,29.96,12,4,16,0.00
2013-6-7,71,67,65,71,66,58,100,97,76,29.93,29.51,13,5,20,1.39
2013-6-8,79,69,62,70,62,59,100,80,56,30.07,29.51,13,3,16,0.51
2013-6-9,88,71,61,68,61,56,100,75,42,30.19,30.07,6,1,12,0.03
2013-6-10,77,69,65,74,67,55,100,94,67,30.16,29.84,12,4,15,1.28
2013-6-11,86,75,66,73,65,60,100,73,47,29.84,29.72,7,4,13,0.10
2013-6-12,87,77,70,65,62,60,80,63,47,29.84,29.78,7,3,12,0.00
2013-6-13,96,70,64,72,65,58,100,86,39,29.84,29.42,14,4,17,0.60
2013-6-14,77,63,56,64,56,50,100,78,42,29.93,29.48,13,5,18,0.57
2013-6-15,88,68,57,67,59,55,100,77,40,30.04,29.93,7,2,8,0.40
2013-6-16,87,73,62,69,64,62,100,79,46,30.04,29.87,7,1,16,0.26
2013-6-17,88,75,67,75,68,64,100,83,53,29.96,29.90,6,1,9,0.26
2013-6-18,81,69,63,71,67,63,100,92,65,29.93,29.78,8,2,12,0.94
2013-6-19,81,66,59,64,60,53,100,83,39,30.16,29.84,6,2,9,0.54
2013-6-20,80,65,54,63,56,52,100,77,41,30.31,30.16,8,2,10,0.00
2013-6-22,82,75,67,63,58,55,71,56,48,30.28,30.16,8,2,8,0.00
2013-6-23,83,73,64,71,65,57,92,77,60,30.22,30.07,13,2,17,0.00
2013-6-24,90,78,72,73,71,69,100,80,52,30.13,30.01,7,1,7,0.00
2013-6-25,92,80,70,76,70,67,100,75,45,30.04,29.87,6,1,10,0.00
2013-6-26,86,79,72,73,67,63,100,68,51,29.93,29.78,7,1,10,0.04
2013-6-27,85,76,71,74,70,67,100,85,56,29.84,29.63,15,3,21,0.09
2013-6-28,88,77,71,75,70,67,100,80,53,29.63,29.51,5,2,8,0.11
2013-6-29,84,74,67,76,70,66,100,89,58,29.72,29.51,7,2,13,0.33
2013-6-30,83,74,70,76,71,67,100,91,62,29.90,29.72,12,3,14,0.04
2013-7-1,80,74,71,75,72,69,100,95,70,30.04,29.90,12,5,20,0.48
2013-7-2,84,74,71,74,72,68,100,92,63,30.22,30.04,12,5,13,0.03
2013-7-3,85,76,69,76,72,69,100,88,66,30.25,30.19,10,3,13,0.13
2013-7-4,88,77,72,76,72,69,100,86,57,30.28,30.19,9,2,14,0.03
2013-7-5,91,78,71,76,72,69,100,83,56,30.25,30.16,9,2,10,0.03
2013-7-6,94,82,75,76,73,69,100,78,49,30.19,30.07,6,2,8,0.01
2013-7-7,94,83,75,74,72,69,93,71,51,30.10,29.98,6,2,9,0.03
2013-7-8,92,79,74,74,68,-100,93,71,51,30.10,30.01,6,2,10,0.03
2013-7-9,87,78,72,77,72,70,100,84,60,30.10,30.01,5,1,7,0.01
2013-7-10,85,75,71,77,69,-100,100,88,67,30.04,29.87,6,1,8,0.09
2013-7-11,81,75,70,76,72,69,100,88,75,29.93,29.87,8,1,8,1.16
2013-7-12,73,70,68,73,70,68,100,100,100,30.01,29.90,8,1,13,0.69
2013-7-13,87,76,67,78,71,67,100,86,61,30.31,30.01,10,3,14,0.28
2013-7-14,89,79,73,77,72,69,100,83,55,30.34,30.28,6,1,7,0.00
2013-7-15,92,79,71,77,72,70,100,81,51,30.31,30.16,6,2,9,0.00
2013-7-16,93,83,75,77,70,66,97,68,46,30.19,30.13,6,2,9,0.02
2013-7-17,95,82,73,75,70,67,93,68,43,30.19,30.10,5,1,6,0.02
2013-7-18,94,82,75,76,72,69,96,74,51,30.10,29.98,5,1,7,0.00
2013-7-19,94,83,78,75,72,70,85,71,53,30.01,29.87,7,1,10,0.00
2013-7-20,94,84,80,75,71,-100,81,67,49,29.90,29.78,7,2,9,0.00
2013-7-21,91,79,72,74,71,67,100,78,50,29.96,29.87,8,1,10,0.16
2013-7-22,86,76,72,75,72,69,97,87,58,29.93,29.78,7,2,10,0.00
2013-7-23,89,80,73,78,73,69,100,81,57,29.78,29.60,5,2,8,0.14
2013-7-24,88,80,72,74,69,63,97,70,52,29.87,29.66,8,3,13,0.14
2013-7-25,78,70,64,64,59,54,88,69,59,30.01,29.87,8,2,13,0.01
2013-7-26,83,72,65,65,61,58,88,69,46,30.07,29.98,5,2,9,0.01
2013-7-27,85,72,66,70,66,62,100,81,49,30.07,29.96,7,1,12,0.01
2013-7-28,84,74,67,73,69,66,100,85,64,29.98,29.93,10,3,12,0.00
2013-7-29,84,76,70,73,66,57,100,75,48,30.13,29.96,8,2,13,0.00
2013-7-30,84,73,63,62,59,56,87,65,39,30.19,30.13,7,2,10,0.04
2013-7-31,85,73,64,70,63,59,98,73,50,30.16,30.04,7,1,9,0.11
2013-8-1,82,71,68,72,67,64,100,89,60,30.04,29.84,17,3,20,1.79
2013-8-2,87,75,67,73,68,62,100,80,49,29.96,29.81,6,2,8,0.01
2013-8-3,85,75,69,74,67,61,100,77,51,29.96,29.93,7,1,8,0.00
2013-8-4,82,75,67,67,60,54,91,63,44,29.98,29.87,10,4,14,0.00
2013-8-5,81,72,62,59,55,50,77,56,44,30.10,29.98,6,2,10,0.00
2013-8-6,78,69,62,68,63,58,96,81,64,30.13,30.04,3,0,8,0.03
2013-8-7,77,71,66,73,68,63,100,89,74,30.13,30.07,9,3,13,0.58
2013-8-8,86,76,72,73,69,68,93,79,57,30.07,30.01,10,4,15,0.01
2013-8-9,92,79,74,77,74,71,100,86,53,30.04,29.84,9,3,13,0.79
2013-8-10,85,77,69,74,69,62,100,78,50,30.07,29.93,7,2,12,0.13
2013-8-11,84,74,68,69,66,61,98,79,51,30.13,30.04,7,1,8,0.00
2013-8-12,89,77,70,76,70,67,100,82,52,30.04,29.93,3,0,6,0.00
2013-8-13,85,76,72,76,68,-100,100,80,57,29.93,29.75,10,3,15,0.00
2013-8-14,75,68,65,70,53,-100,96,63,46,29.96,29.75,12,6,20,0.41
2013-8-15,77,59,59,55,23,-100,85,47,42,30.16,30.10,6,2,10,0.01
2013-8-16,82,65,55,65,51,-100,100,70,39,30.19,30.13,7,1,9,0.01
2013-8-21,89,76,68,74,68,64,100,80,53,30.22,30.10,9,2,12,0.00
2013-8-22,86,75,68,74,70,65,100,86,61,30.10,29.93,7,1,10,0.40
2013-8-23,84,74,67,72,65,57,100,75,46,30.07,29.90,6,1,8,0.03
2013-8-24,80,69,60,66,62,57,100,81,50,30.34,30.07,8,2,13,0.01
2013-8-25,80,66,55,64,55,-100,100,74,44,30.43,30.28,6,1,8,0.00
2013-8-26,84,72,61,64,61,57,93,69,49,30.31,30.01,6,2,9,0.00
2013-8-27,88,77,72,67,65,63,76,67,47,30.01,29.87,9,3,14,0.00
2013-9-1,89,77,74,75,69,-100,97,81,58,29.87,29.78,8,3,13,0.04
2013-9-2,87,78,73,75,72,68,100,84,54,29.81,29.75,5,1,9,0.04
2013-9-3,85,77,71,75,67,55,100,73,48,29.93,29.72,8,3,10,0.00
2013-9-4,80,72,66,62,57,54,87,62,44,30.04,29.93,7,3,10,0.00
2013-9-5,83,74,66,64,60,46,89,63,45,30.10,29.98,9,3,16,0.00
2013-9-6,76,65,56,53,48,43,86,56,40,30.22,30.10,6,2,10,0.00
2013-9-7,79,65,52,61,55,50,100,74,39,30.16,29.96,6,1,9,0.00
2013-9-8,86,72,64,66,60,-100,89,69,48,30.04,29.84,6,2,10,0.00
2013-9-9,80,68,56,64,55,46,84,63,48,30.22,30.04,8,2,13,0.00
2013-9-11,91,77,71,71,68,65,96,74,50,30.16,30.04,7,2,12,0.00
2013-9-12,89,78,72,72,69,66,100,76,51,30.01,29.75,10,3,16,0.18
2013-9-13,78,72,65,71,62,52,100,74,47,29.87,29.66,7,3,13,0.01
2013-9-14,70,62,53,51,48,45,79,59,46,30.16,29.87,9,3,17,0.00
2013-9-15,74,56,47,56,47,-100,99,76,46,30.25,30.13,6,1,13,0.00
2013-9-16,73,66,58,62,57,52,86,75,54,30.19,30.04,6,1,10,0.01
2013-9-17,66,58,49,52,44,40,78,62,47,30.40,30.19,10,4,14,0.01
2013-9-18,54,46,45,48,44,42,95,90,76,30.37,30.31,0,0,1,0.00
2013-9-19,74,60,47,59,50,47,100,75,41,30.22,30.10,6,1,12,0.00
2013-9-20,76,62,51,61,54,51,100,78,50,30.10,30.01,8,1,10,0.00
2013-9-21,80,67,55,70,60,53,100,82,43,30.01,29.72,12,4,15,0.07
2013-10-2,83,69,60,65,60,58,100,76,46,30.07,29.98,7,1,8,0.24
2013-10-3,81,70,61,68,62,59,100,78,52,30.10,30.04,3,1,7,0.24
2013-10-4,84,71,60,70,63,60,100,79,45,30.07,30.01,3,1,7,0.00
2013-10-5,85,71,64,69,65,63,100,83,52,30.07,30.01,5,1,8,0.00
2013-10-6,83,72,65,74,67,62,100,84,54,30.07,29.98,9,4,12,0.00
2013-10-7,80,70,61,69,65,53,98,86,63,30.01,29.84,16,7,23,0.69
2013-10-8,67,61,56,52,47,42,74,60,51,30.28,30.01,8,3,12,0.33
2013-10-18,67,61,53,61,44,39,80,55,38,30.01,29.75,13,5,20,0.00
2013-10-19,64,56,46,61,50,43,95,81,52,30.01,29.81,3,0,8,0.03
2013-10-20,62,55,48,60,36,-100,95,52,34,30.07,29.81,13,6,17,0.01
2013-10-21,65,56,42,51,43,38,93,65,37,30.16,30.01,7,1,12,0.01
2013-10-22,69,60,49,54,48,38,93,65,50,29.96,29.78,5,1,8,0.00
2013-10-23,56,50,47,48,40,30,92,70,43,29.84,29.60,8,2,12,0.33
2013-10-24,56,48,45,36,31,24,63,52,31,30.10,29.84,16,8,16,0.01
2013-10-25,54,50,45,35,31,27,60,48,41,30.31,30.10,9,6,16,0.00
2013-10-26,59,48,37,38,32,30,85,57,34,30.31,29.98,7,2,12,0.00
2013-10-27,59,51,41,37,32,-100,82,50,31,30.16,29.93,12,5,16,0.00
2013-10-28,65,46,35,45,36,-100,90,75,43,30.28,30.16,6,1,10,0.00
2013-10-29,66,53,44,47,42,39,83,69,47,30.37,30.28,8,2,13,0.00
2013-10-30,60,53,46,54,48,42,90,85,76,30.34,30.19,3,0,5,0.01
2013-11-12,51,48,37,37,34,22,68,59,51,30.19,29.98,14,6,18,0.00
2013-11-13,40,38,35,20,14,7,47,37,31,30.43,30.37,13,8,15,0.00
2013-11-14,55,44,36,27,23,17,58,45,31,30.37,30.25,8,4,13,0.00
2013-11-15,55,47,39,34,32,29,77,57,37,30.31,30.22,5,1,10,0.00
2013-11-16,55,48,42,49,42,-100,92,83,74,30.34,30.25,6,1,8,0.50
2013-11-17,66,56,46,60,52,44,95,89,68,30.25,29.84,9,1,12,0.03
2013-11-18,64,57,48,60,46,31,98,70,38,29.84,29.69,12,5,15,0.33
2013-11-20,46,37,30,27,22,19,75,56,45,30.55,30.34,12,4,18,0.00
2013-11-21,59,43,29,42,34,24,87,72,47,30.55,30.40,8,2,10,0.00
2013-11-22,62,54,44,52,48,39,90,80,64,30.37,29.98,6,1,8,0.17
2013-11-23,54,45,38,51,29,-100,93,58,35,30.10,29.96,20,10,24,0.01
2013-11-24,36,29,27,15,2,0,41,31,31,30.49,30.07,24,17,33,0.00
2013-11-25,34,29,25,19,12,7,57,49,38,30.58,30.40,8,4,13,0.00
2013-11-26,42,38,35,23,21,18,58,51,45,30.40,30.31,5,1,9,0.00